Time,TemperatureF,DewpointF,PressureIn,WindDirection,WindDirectionDegrees,WindSpeedMPH,WindSpeedGustMPH,Humidity,HourlyPrecipIn,Conditions,Clouds,dailyrainin,SoftwareType,DateUTC
2013-02-26 00:36:00,45.7,8.0,29.96,West,275,4.0,11.0,21,0.00,,,0.00,weatherlink.com 1.10,2013-02-26 07:36:00,
2013-02-26 01:24:00,45.7,12.0,29.95,WNW,296,9.0,11.0,25,0.00,,,0.00,weatherlink.com 1.10,2013-02-26 08:24:00,
2013-02-26 02:12:00,44.6,11.0,29.95,North,5,7.0,10.0,25,0.00,,,0.00,weatherlink.com 1.10,2013-02-26 09:12:00,
2013-02-26 02:59:00,43.8,11.0,29.93,NNW,333,4.0,5.0,26,0.00,,,0.00,weatherlink.com 1.10,2013-02-26 09:59:00,
2013-02-26 03:44:00,44.1,10.0,29.92,SW,234,4.0,8.0,25,0.00,,,0.00,weatherlink.com 1.10,2013-02-26 10:44:00,
2013-02-26 04:30:00,44.3,12.0,29.89,West,271,0.0,7.0,26,0.00,,,0.00,weatherlink.com 1.10,2013-02-26 11:30:00,
2013-02-26 05:17:00,40.7,12.0,29.91,WNW,288,0.0,1.0,31,0.00,,,0.00,weatherlink.com 1.10,2013-02-26 12:17:00,
2013-02-26 06:02:00,43.6,12.0,29.91,NNE,14,2.0,6.0,27,0.00,,,0.00,weatherlink.com 1.10,2013-02-26 13:02:00,
2013-02-26 06:49:00,37.3,11.0,29.92,NNE,19,2.0,4.0,34,0.00,,,0.00,weatherlink.com 1.10,2013-02-26 13:49:00,
2013-02-26 07:37:00,36.1,10.0,29.92,ENE,60,4.0,5.0,34,0.00,,,0.00,weatherlink.com 1.10,2013-02-26 14:37:00,
2013-02-26 08:23:00,40.0,12.0,29.92,ENE,64,3.0,4.0,31,0.00,,,0.00,weatherlink.com 1.10,2013-02-26 15:23:00,
2013-02-26 09:10:00,44.8,12.0,29.91,SE,126,2.0,6.0,26,0.00,,,0.00,weatherlink.com 1.10,2013-02-26 16:10:00,
2013-02-26 09:57:00,49.1,13.0,29.91,North,360,1.0,5.0,23,0.00,,,0.00,weatherlink.com 1.10,2013-02-26 16:57:00,
2013-02-26 10:46:00,56.3,9.0,29.90,ESE,120,4.0,14.0,15,0.00,,,0.00,weatherlink.com 1.10,2013-02-26 17:46:00,
2013-02-26 11:33:00,56.9,6.0,29.87,WNW,294,11.0,16.0,13,0.00,,,0.00,weatherlink.com 1.10,2013-02-26 18:33:00,
2013-02-26 12:20:00,60.1,7.0,29.84,SW,221,7.0,17.0,12,0.00,,,0.00,weatherlink.com 1.10,2013-02-26 19:20:00,
2013-02-26 13:07:00,61.5,8.0,29.80,NW,315,7.0,16.0,12,0.00,,,0.00,weatherlink.com 1.10,2013-02-26 20:07:00,
2013-02-26 13:54:00,63.3,1.0,29.77,SW,217,4.0,15.0,8,0.00,,,0.00,weatherlink.com 1.10,2013-02-26 20:54:00,
2013-02-26 14:41:00,64.6,-4.0,29.76,West,275,5.0,14.0,6,0.00,,,0.00,weatherlink.com 1.10,2013-02-26 21:41:00,
2013-02-26 15:26:00,64.4,-13.0,29.75,West,277,15.0,20.0,4,0.00,,,0.00,weatherlink.com 1.10,2013-02-26 22:26:00,
2013-02-26 16:11:00,63.7,-9.0,29.75,SW,231,4.0,20.0,5,0.00,,,0.00,weatherlink.com 1.10,2013-02-26 23:11:00,
2013-02-26 16:56:00,62.4,-14.0,29.76,SW,228,11.0,26.0,4,0.00,,,0.00,weatherlink.com 1.10,2013-02-26 23:56:00,
2013-02-26 17:42:00,60.1,-11.0,29.77,West,277,2.0,22.0,5,0.00,,,0.00,weatherlink.com 1.10,2013-02-27 00:42:00,
2013-02-26 18:31:00,58.2,-9.0,29.79,WNW,288,8.0,27.0,6,0.00,,,0.00,weatherlink.com 1.10,2013-02-27 01:31:00,
2013-02-26 19:19:00,57.0,-7.0,29.80,West,272,17.0,28.0,7,0.00,,,0.00,weatherlink.com 1.10,2013-02-27 02:19:00,
2013-02-26 20:07:00,55.6,-2.0,29.84,WNW,299,11.0,26.0,9,0.00,,,0.00,weatherlink.com 1.10,2013-02-27 03:07:00,
2013-02-26 20:56:00,50.5,3.0,29.89,North,360,5.0,12.0,14,0.00,,,0.00,weatherlink.com 1.10,2013-02-27 03:56:00,
2013-02-26 21:45:00,48.1,-1.0,29.93,North,349,3.0,11.0,13,0.00,,,0.00,weatherlink.com 1.10,2013-02-27 04:45:00,
2013-02-26 22:33:00,45.8,-2.0,29.95,North,360,6.0,15.0,13,0.00,,,0.00,weatherlink.com 1.10,2013-02-27 05:33:00,
2013-02-26 23:20:00,43.3,-3.0,29.98,NNW,336,5.0,12.0,14,0.00,,,0.00,weatherlink.com 1.10,2013-02-27 06:20:00,